createdAt,value
2023-05-08T00:00:31.801Z,50.58
2023-05-08T00:03:02.613Z,50.52
2023-05-08T00:05:33.736Z,50.74
2023-05-08T00:08:04.784Z,50.48
2023-05-08T00:10:35.707Z,50.48
2023-05-08T00:13:06.673Z,50.71
2023-05-08T00:15:38.503Z,50.64
2023-05-08T00:18:09.298Z,50.71
2023-05-08T00:20:40.113Z,50.88
2023-05-08T00:23:11.158Z,50.78
2023-05-08T00:25:41.791Z,50.88
2023-05-08T00:28:12.443Z,50.60
2023-05-08T00:30:43.168Z,50.77
2023-05-08T00:33:14.083Z,50.84
2023-05-08T00:35:44.949Z,50.85
2023-05-08T00:38:15.807Z,50.92
2023-05-08T00:40:46.530Z,50.99
2023-05-08T00:43:17.266Z,50.84
2023-05-08T00:45:48.654Z,50.79
2023-05-08T00:48:20.420Z,50.98
2023-05-08T00:50:52.582Z,50.74
2023-05-08T00:53:27.702Z,50.86
2023-05-08T00:55:59.553Z,50.98
2023-05-08T00:58:31.022Z,51.00
2023-05-08T01:01:02.294Z,50.99
2023-05-08T01:03:33.947Z,51.10
2023-05-08T01:06:06.738Z,51.10
2023-05-08T01:08:37.854Z,51.13
2023-05-08T01:11:18.524Z,51.25
2023-05-08T01:13:59.349Z,51.03
2023-05-08T01:16:37.637Z,51.09
2023-05-08T01:19:32.775Z,51.05
2023-05-08T01:22:11.475Z,51.07
2023-05-08T01:25:07.961Z,51.09
2023-05-08T01:28:02.455Z,51.15
2023-05-08T01:31:00.684Z,50.91
2023-05-08T01:33:37.972Z,51.02
2023-05-08T01:36:21.875Z,51.07
2023-05-08T01:39:00.171Z,51.01
2023-05-08T01:41:33.615Z,50.88
2023-05-08T01:44:15.066Z,50.99
2023-05-08T01:46:50.209Z,51.05
2023-05-08T01:49:26.176Z,51.11
2023-05-08T01:52:03.096Z,51.09
2023-05-08T01:54:42.411Z,50.89
2023-05-08T01:57:15.835Z,51.00
2023-05-08T01:59:49.293Z,51.03
2023-05-08T02:02:22.027Z,51.03
2023-05-08T02:04:54.885Z,51.15
2023-05-08T02:07:27.363Z,50.96
2023-05-08T02:09:59.125Z,51.24
2023-05-08T02:12:31.196Z,51.08
2023-05-08T02:15:03.678Z,51.16
2023-05-08T02:17:35.028Z,51.05
2023-05-08T02:20:14.814Z,51.19
2023-05-08T02:22:46.819Z,51.42
2023-05-08T02:25:19.451Z,51.42
2023-05-08T02:27:54.677Z,51.37
2023-05-08T02:30:27.601Z,51.20
2023-05-08T02:33:00.890Z,51.39
2023-05-08T02:35:33.921Z,51.23
2023-05-08T02:38:10.764Z,51.32
2023-05-08T02:40:45.456Z,51.44
2023-05-08T02:43:16.595Z,51.32
2023-05-08T02:45:51.230Z,51.31
2023-05-08T02:48:30.029Z,51.11
2023-05-08T02:51:06.352Z,51.27
2023-05-08T02:53:42.058Z,51.38
2023-05-08T02:56:20.618Z,51.38
2023-05-08T02:58:58.977Z,51.16
2023-05-08T03:01:34.665Z,51.43
2023-05-08T03:04:10.157Z,51.42
2023-05-08T03:06:44.973Z,51.36
2023-05-08T03:09:26.352Z,51.22
2023-05-08T03:12:14.808Z,51.35
2023-05-08T03:14:50.159Z,51.41
2023-05-08T03:17:23.813Z,51.52
2023-05-08T03:20:00.790Z,51.48
2023-05-08T03:22:35.973Z,51.45
2023-05-08T03:25:10.737Z,51.39
2023-05-08T03:27:43.134Z,51.52
2023-05-08T03:30:16.926Z,51.27
2023-05-08T03:32:49.425Z,51.60
2023-05-08T03:35:21.359Z,51.33
2023-05-08T03:37:54.035Z,51.41
2023-05-08T03:40:24.884Z,51.49
2023-05-08T03:42:56.352Z,51.46
2023-05-08T03:45:27.957Z,51.33
2023-05-08T03:48:00.972Z,51.00
2023-05-08T03:50:32.210Z,50.99
2023-05-08T03:53:03.340Z,50.47
2023-05-08T03:55:34.854Z,50.22
2023-05-08T03:58:12.088Z,49.97
2023-05-08T04:00:58.070Z,49.59
2023-05-08T04:03:39.425Z,49.40
2023-05-08T04:06:16.112Z,49.20
2023-05-08T04:08:56.527Z,49.48
2023-05-08T04:11:31.968Z,49.45
2023-05-08T04:14:07.164Z,49.65
2023-05-08T04:16:44.502Z,49.59
2023-05-08T04:19:20.731Z,49.82
2023-05-08T04:21:56.575Z,49.72
2023-05-08T04:24:30.178Z,49.76
2023-05-08T04:27:02.680Z,49.84
2023-05-08T04:29:34.288Z,49.95
2023-05-08T04:32:08.383Z,49.84
2023-05-08T04:34:39.840Z,50.02
2023-05-08T04:37:23.038Z,49.90
2023-05-08T04:39:55.267Z,50.00
2023-05-08T04:42:27.044Z,50.05
2023-05-08T04:44:57.969Z,50.25
2023-05-08T04:47:28.772Z,50.20
2023-05-08T04:50:00.698Z,50.27
2023-05-08T04:52:33.117Z,50.40
2023-05-08T04:55:04.014Z,50.36
2023-05-08T04:57:34.760Z,50.21
2023-05-08T05:00:06.386Z,50.35
2023-05-08T05:02:37.331Z,50.43
2023-05-08T05:05:09.676Z,50.32
2023-05-08T05:07:40.602Z,50.35
2023-05-08T05:10:12.834Z,50.44
2023-05-08T05:12:43.577Z,50.51
2023-05-08T05:15:15.216Z,50.30
2023-05-08T05:17:46.282Z,50.39
2023-05-08T05:20:17.404Z,50.63
2023-05-08T05:22:48.199Z,50.66
2023-05-08T05:25:19.049Z,50.61
2023-05-08T05:27:50.415Z,50.54
2023-05-08T05:30:21.734Z,50.48
2023-05-08T05:32:52.736Z,50.57
2023-05-08T05:35:25.583Z,50.64
2023-05-08T05:37:56.834Z,50.52
2023-05-08T05:40:27.981Z,50.54
2023-05-08T05:43:00.270Z,50.56
2023-05-08T05:45:33.309Z,50.40
2023-05-08T05:48:04.976Z,50.92
2023-05-08T05:50:36.112Z,50.71
2023-05-08T05:53:07.196Z,50.66
2023-05-08T05:55:38.273Z,50.59
2023-05-08T05:58:09.105Z,50.61
2023-05-08T06:00:40.486Z,50.61
2023-05-08T06:03:12.152Z,50.76
2023-05-08T06:05:43.284Z,50.65
2023-05-08T06:08:14.033Z,50.67
2023-05-08T06:10:44.815Z,50.59
2023-05-08T06:13:15.607Z,50.47
2023-05-08T06:15:46.713Z,50.60
2023-05-08T06:18:18.049Z,50.65
2023-05-08T06:20:48.947Z,50.75
2023-05-08T06:23:19.838Z,50.68
2023-05-08T06:25:50.809Z,50.74
2023-05-08T06:28:22.669Z,50.66
2023-05-08T06:30:54.232Z,50.69
2023-05-08T06:33:26.767Z,50.79
2023-05-08T06:35:57.939Z,50.84
2023-05-08T06:38:28.782Z,50.96
2023-05-08T06:40:59.987Z,50.93
2023-05-08T06:43:31.338Z,50.85
2023-05-08T06:46:02.257Z,50.91
2023-05-08T06:48:33.712Z,50.76
2023-05-08T06:51:04.946Z,50.92
2023-05-08T06:53:36.031Z,50.82
2023-05-08T06:56:07.795Z,51.03
2023-05-08T06:58:38.669Z,50.99
2023-05-08T07:01:09.536Z,50.78
2023-05-08T07:03:41.483Z,50.78
2023-05-08T07:06:12.394Z,50.77
2023-05-08T07:08:43.268Z,50.89
2023-05-08T07:11:14.110Z,50.73
2023-05-08T07:13:48.368Z,50.76
2023-05-08T07:16:19.533Z,50.89
2023-05-08T07:18:50.579Z,50.75
2023-05-08T07:21:21.764Z,50.87
2023-05-08T07:23:53.964Z,50.96
2023-05-08T07:26:25.543Z,50.78
2023-05-08T07:28:56.333Z,50.91
2023-05-08T07:31:27.416Z,50.77
2023-05-08T07:33:58.638Z,50.72
2023-05-08T07:36:29.678Z,50.77
2023-05-08T07:39:00.598Z,50.46
2023-05-08T07:41:31.617Z,50.33
2023-05-08T07:44:02.624Z,50.41
2023-05-08T07:46:33.710Z,50.39
2023-05-08T07:49:04.998Z,49.92
2023-05-08T07:51:36.024Z,49.05
2023-05-08T07:54:07.119Z,48.86
2023-05-08T07:56:38.090Z,48.93
2023-05-08T07:59:08.992Z,48.88
2023-05-08T08:01:42.803Z,48.69
2023-05-08T08:04:15.434Z,48.66
2023-05-08T08:06:46.431Z,48.66
2023-05-08T08:09:17.699Z,48.64
2023-05-08T08:11:48.703Z,48.17
2023-05-08T08:14:19.501Z,48.28
2023-05-08T08:16:50.992Z,48.09
2023-05-08T08:19:21.906Z,48.28
2023-05-08T08:21:52.787Z,48.05
2023-05-08T08:24:24.392Z,48.05
2023-05-08T08:26:55.450Z,48.15
2023-05-08T08:29:26.197Z,48.07
2023-05-08T08:31:57.332Z,48.10
2023-05-08T08:34:28.206Z,48.00
2023-05-08T08:36:59.151Z,48.01
2023-05-08T08:39:33.375Z,48.09
2023-05-08T08:42:04.822Z,48.20
2023-05-08T08:44:36.124Z,48.37
2023-05-08T08:47:11.624Z,48.36
2023-05-08T08:49:49.281Z,48.48
2023-05-08T08:52:28.342Z,48.47
2023-05-08T08:55:01.454Z,48.62
2023-05-08T08:57:38.127Z,48.68
2023-05-08T09:00:14.259Z,48.69
2023-05-08T09:02:45.433Z,48.86
2023-05-08T09:05:16.934Z,48.92
2023-05-08T09:07:48.908Z,48.97
2023-05-08T09:10:21.205Z,48.94
2023-05-08T09:12:52.451Z,48.97
2023-05-08T09:15:23.342Z,49.07
2023-05-08T09:17:54.296Z,49.03
2023-05-08T09:20:26.780Z,48.83
2023-05-08T09:22:58.868Z,49.05
2023-05-08T09:25:42.041Z,49.07
2023-05-08T09:28:23.409Z,48.99
2023-05-08T09:30:56.524Z,49.05
2023-05-08T09:33:29.108Z,49.00
2023-05-08T09:36:00.342Z,49.18
2023-05-08T09:38:38.669Z,49.07
2023-05-08T09:41:15.493Z,49.01
2023-05-08T09:44:01.389Z,48.96
2023-05-08T09:46:34.060Z,49.06
2023-05-08T09:49:06.162Z,49.02
2023-05-08T09:51:37.009Z,49.00
2023-05-08T09:54:20.325Z,48.93
2023-05-08T09:56:51.373Z,48.99
2023-05-08T09:59:30.831Z,49.12
2023-05-08T10:02:16.281Z,49.10
2023-05-08T10:04:47.599Z,48.95
2023-05-08T10:07:28.008Z,49.06
2023-05-08T10:10:06.557Z,49.14
2023-05-08T10:12:38.094Z,49.20
2023-05-08T10:15:11.341Z,49.11
2023-05-08T10:17:49.720Z,49.13
2023-05-08T10:20:26.120Z,49.00
2023-05-08T10:22:59.769Z,49.25
2023-05-08T10:25:36.638Z,49.11
2023-05-08T10:28:14.895Z,49.11
2023-05-08T10:30:49.595Z,49.15
2023-05-08T10:33:25.090Z,48.99
2023-05-08T10:35:56.171Z,48.88
2023-05-08T10:38:27.974Z,49.19
2023-05-08T10:41:03.363Z,49.07
2023-05-08T10:43:34.916Z,48.89
2023-05-08T10:46:17.179Z,49.03
2023-05-08T10:48:57.646Z,49.06
2023-05-08T10:51:36.700Z,49.00
2023-05-08T10:54:14.198Z,49.14
2023-05-08T10:56:45.269Z,48.95
2023-05-08T10:59:22.979Z,49.09
2023-05-08T11:01:53.731Z,49.07
2023-05-08T11:04:25.560Z,49.11
2023-05-08T11:06:59.239Z,49.13
2023-05-08T11:09:37.859Z,49.05
2023-05-08T11:12:19.967Z,49.17
2023-05-08T11:14:58.744Z,49.01
2023-05-08T11:17:30.115Z,49.26
2023-05-08T11:20:03.338Z,48.46
2023-05-08T11:22:35.002Z,47.90
2023-05-08T11:25:08.870Z,46.29
2023-05-08T11:27:57.532Z,47.82
2023-05-08T11:30:39.864Z,47.60
2023-05-08T11:33:18.424Z,47.88
2023-05-08T11:35:51.804Z,47.62
2023-05-08T11:38:25.009Z,47.66
2023-05-08T11:41:00.876Z,47.48
2023-05-08T11:44:04.732Z,47.64
2023-05-08T11:46:42.435Z,47.52
2023-05-08T11:49:18.972Z,47.52
2023-05-08T11:51:55.254Z,47.44
2023-05-08T11:54:24.904Z,47.43
2023-05-08T11:56:59.740Z,47.88
2023-05-08T11:59:36.152Z,47.70
2023-05-08T12:02:09.602Z,47.55
2023-05-08T12:04:48.252Z,47.68
2023-05-08T12:07:20.688Z,47.82
2023-05-08T12:09:51.623Z,48.01
2023-05-08T12:12:22.632Z,48.04
2023-05-08T12:14:53.973Z,48.02
2023-05-08T12:17:24.899Z,48.00
2023-05-08T12:20:04.293Z,48.03
2023-05-08T12:22:35.395Z,48.09
2023-05-08T12:25:08.877Z,48.03
2023-05-08T12:27:40.526Z,47.98
2023-05-08T12:30:14.125Z,47.87
2023-05-08T12:32:45.827Z,48.17
2023-05-08T12:35:17.535Z,48.26
2023-05-08T12:37:49.040Z,48.21
2023-05-08T12:40:31.525Z,48.11
2023-05-08T12:43:03.961Z,48.11
2023-05-08T12:45:39.320Z,48.29
2023-05-08T12:48:12.853Z,48.18
2023-05-08T12:50:42.965Z,48.34
2023-05-08T12:53:15.987Z,48.41
2023-05-08T12:55:55.041Z,48.30
2023-05-08T12:58:29.141Z,48.45
2023-05-08T13:01:12.063Z,48.50
2023-05-08T13:03:43.307Z,48.39
2023-05-08T13:06:25.597Z,48.50
2023-05-08T13:08:57.550Z,48.83
2023-05-08T13:11:35.158Z,48.70
2023-05-08T13:14:06.091Z,48.51
2023-05-08T13:16:47.902Z,48.64
2023-05-08T13:19:19.155Z,48.75
2023-05-08T13:21:50.110Z,48.71
2023-05-08T13:24:21.034Z,48.64
2023-05-08T13:26:51.941Z,48.63
2023-05-08T13:29:22.824Z,48.67
2023-05-08T13:31:53.763Z,48.80
2023-05-08T13:34:25.552Z,48.63
2023-05-08T13:36:56.347Z,48.65
2023-05-08T13:39:27.410Z,48.72
2023-05-08T13:41:58.116Z,48.84
2023-05-08T13:44:28.881Z,48.77
2023-05-08T13:46:59.704Z,48.86
2023-05-08T13:49:30.347Z,48.82
2023-05-08T13:52:01.304Z,48.88
2023-05-08T13:54:32.470Z,48.81
2023-05-08T13:57:03.965Z,48.76
2023-05-08T13:59:34.722Z,48.71
2023-05-08T14:02:05.589Z,48.61
2023-05-08T14:04:36.576Z,48.71
2023-05-08T14:07:07.568Z,48.44
2023-05-08T14:09:38.612Z,48.29
2023-05-08T14:12:09.658Z,48.16
2023-05-08T14:14:41.214Z,47.50
2023-05-08T14:17:12.384Z,47.52
2023-05-08T14:19:43.357Z,47.35
2023-05-08T14:22:14.188Z,47.28
2023-05-08T14:24:45.357Z,46.59
2023-05-08T14:27:16.351Z,46.67
2023-05-08T14:29:47.255Z,46.91
2023-05-08T14:32:18.183Z,46.70
2023-05-08T14:34:49.275Z,46.84
2023-05-08T14:37:20.333Z,46.91
2023-05-08T14:39:54.164Z,46.80
2023-05-08T14:42:25.427Z,46.64
2023-05-08T14:44:57.053Z,47.01
2023-05-08T14:47:28.723Z,46.90
2023-05-08T14:49:59.744Z,46.89
2023-05-08T14:52:30.831Z,46.84
2023-05-08T14:55:02.117Z,46.88
2023-05-08T14:57:33.296Z,46.72
2023-05-08T15:00:04.946Z,46.66
2023-05-08T15:02:35.989Z,46.76
2023-05-08T15:05:11.080Z,46.70
2023-05-08T15:07:50.113Z,46.63
2023-05-08T15:10:21.169Z,46.75
2023-05-08T15:12:52.364Z,46.83
2023-05-08T15:15:23.596Z,46.76
2023-05-08T15:17:55.111Z,46.89
2023-05-08T15:20:26.121Z,47.09
2023-05-08T15:22:57.007Z,47.06
2023-05-08T15:25:28.092Z,47.11
2023-05-08T15:28:00.854Z,47.14
2023-05-08T15:30:32.240Z,47.21
2023-05-08T15:33:03.526Z,47.41
2023-05-08T15:35:34.730Z,47.16
2023-05-08T15:38:07.329Z,46.97
2023-05-08T15:40:38.384Z,47.16
2023-05-08T15:43:09.605Z,47.20
2023-05-08T15:45:40.417Z,46.85
2023-05-08T15:48:11.319Z,46.61
2023-05-08T15:50:42.301Z,46.64
2023-05-08T15:53:13.634Z,46.44
2023-05-08T15:55:44.526Z,46.43
2023-05-08T15:58:15.648Z,46.51
2023-05-08T16:00:46.510Z,46.62
2023-05-08T16:03:18.775Z,46.63
2023-05-08T16:05:50.031Z,45.77
2023-05-08T16:08:20.876Z,45.32
2023-05-08T16:10:51.821Z,44.91
2023-05-08T16:13:24.924Z,44.20
2023-05-08T16:15:56.098Z,44.77
2023-05-08T16:18:26.909Z,44.93
2023-05-08T16:20:58.111Z,44.79
2023-05-08T16:23:29.194Z,44.81
2023-05-08T16:26:00.473Z,44.75
2023-05-08T16:28:31.805Z,44.68
2023-05-08T16:31:04.945Z,44.82
2023-05-08T16:33:36.247Z,44.87
2023-05-08T16:36:08.272Z,44.82
2023-05-08T16:38:39.160Z,44.66
2023-05-08T16:41:10.535Z,44.64
2023-05-08T16:43:41.591Z,44.67
2023-05-08T16:46:12.982Z,44.86
2023-05-08T16:48:43.853Z,44.76
2023-05-08T16:51:15.194Z,44.80
2023-05-08T16:53:46.142Z,44.57
2023-05-08T16:56:17.353Z,44.76
2023-05-08T16:58:48.333Z,44.68
2023-05-08T17:01:19.442Z,44.65
2023-05-08T17:03:51.246Z,44.53
2023-05-08T17:06:22.389Z,44.62
2023-05-08T17:08:53.398Z,44.63
2023-05-08T17:11:24.268Z,44.56
2023-05-08T17:13:55.316Z,44.46
2023-05-08T17:16:26.174Z,44.60
2023-05-08T17:18:57.813Z,44.46
2023-05-08T17:21:30.405Z,44.55
2023-05-08T17:24:02.190Z,44.50
2023-05-08T17:26:35.834Z,44.23
2023-05-08T17:29:07.290Z,44.28
2023-05-08T17:31:38.309Z,44.29
2023-05-08T17:34:09.324Z,44.52
2023-05-08T17:36:40.538Z,44.27
2023-05-08T17:39:11.691Z,44.35
2023-05-08T17:41:42.693Z,44.26
2023-05-08T17:44:13.693Z,44.22
2023-05-08T17:46:44.784Z,44.28
2023-05-08T17:49:17.104Z,44.27
2023-05-08T17:51:50.731Z,44.06
2023-05-08T17:54:21.988Z,44.10
2023-05-08T17:56:52.805Z,44.01
2023-05-08T17:59:24.113Z,44.01
2023-05-08T18:01:55.598Z,43.76
2023-05-08T18:04:27.068Z,43.91
2023-05-08T18:07:01.355Z,43.78
2023-05-08T18:09:32.454Z,43.91
2023-05-08T18:12:03.878Z,43.85
2023-05-08T18:14:34.867Z,43.07
2023-05-08T18:17:06.155Z,43.07
2023-05-08T18:19:37.266Z,42.94
2023-05-08T18:22:08.413Z,42.94
2023-05-08T18:24:39.450Z,42.69
2023-05-08T18:27:10.412Z,42.68
2023-05-08T18:29:41.289Z,42.66
2023-05-08T18:32:12.671Z,42.33
2023-05-08T18:34:43.810Z,42.31
2023-05-08T18:37:15.182Z,42.55
2023-05-08T18:39:46.498Z,42.56
2023-05-08T18:42:17.644Z,42.43
2023-05-08T18:44:48.659Z,42.39
2023-05-08T18:47:19.761Z,42.55
2023-05-08T18:49:51.560Z,42.84
2023-05-08T18:52:22.541Z,42.80
2023-05-08T18:54:53.495Z,42.90
2023-05-08T18:57:24.672Z,43.05
2023-05-08T18:59:55.748Z,43.20
2023-05-08T19:02:28.155Z,43.41
2023-05-08T19:04:59.335Z,43.78
2023-05-08T19:07:30.458Z,43.81
2023-05-08T19:10:01.273Z,44.01
2023-05-08T19:12:32.154Z,44.22
2023-05-08T19:15:03.711Z,44.38
2023-05-08T19:17:35.539Z,44.34
2023-05-08T19:20:08.340Z,44.67
2023-05-08T19:22:39.382Z,44.75
2023-05-08T19:25:12.918Z,44.84
2023-05-08T19:27:43.757Z,45.13
2023-05-08T19:30:16.150Z,45.09
2023-05-08T19:32:47.268Z,45.03
2023-05-08T19:35:18.084Z,45.26
2023-05-08T19:37:48.843Z,45.35
2023-05-08T19:40:19.998Z,45.28
2023-05-08T19:42:51.074Z,44.34
2023-05-08T19:45:22.222Z,44.57
2023-05-08T19:47:53.093Z,44.87
2023-05-08T19:50:24.632Z,44.95
2023-05-08T19:52:56.577Z,45.05
2023-05-08T19:55:27.333Z,45.14
2023-05-08T19:57:58.155Z,45.19
2023-05-08T20:00:29.385Z,45.25
2023-05-08T20:03:00.424Z,45.36
2023-05-08T20:05:31.852Z,45.32
2023-05-08T20:08:02.834Z,45.51
2023-05-08T20:10:33.589Z,45.58
2023-05-08T20:13:05.694Z,45.61
2023-05-08T20:15:36.606Z,45.54
2023-05-08T20:18:07.757Z,45.73
2023-05-08T20:20:38.865Z,45.81
2023-05-08T20:23:09.700Z,45.87
2023-05-08T20:25:40.440Z,45.81
2023-05-08T20:28:11.300Z,45.87
2023-05-08T20:30:42.250Z,45.96
2023-05-08T20:33:13.163Z,46.08
2023-05-08T20:35:43.849Z,45.84
2023-05-08T20:38:16.148Z,46.24
2023-05-08T20:40:47.327Z,46.21
2023-05-08T20:43:19.545Z,46.17
2023-05-08T20:45:50.341Z,46.33
2023-05-08T20:48:21.174Z,46.17
2023-05-08T20:50:52.214Z,46.49
2023-05-08T20:53:23.172Z,46.54
2023-05-08T20:56:00.579Z,46.34
2023-05-08T20:58:31.304Z,46.54
2023-05-08T21:01:02.164Z,46.45
2023-05-08T21:03:33.082Z,46.74
2023-05-08T21:06:03.930Z,46.78
2023-05-08T21:08:36.093Z,46.77
2023-05-08T21:11:06.927Z,46.79
2023-05-08T21:13:37.708Z,46.90
2023-05-08T21:16:09.325Z,47.06
2023-05-08T21:18:40.145Z,47.11
2023-05-08T21:21:19.381Z,47.06
2023-05-08T21:23:50.330Z,47.10
2023-05-08T21:26:23.615Z,47.18
2023-05-08T21:28:54.665Z,47.14
2023-05-08T21:31:25.387Z,47.23
2023-05-08T21:33:56.062Z,47.49
2023-05-08T21:36:26.857Z,47.54
2023-05-08T21:38:57.855Z,47.40
2023-05-08T21:41:28.980Z,47.23
2023-05-08T21:43:59.673Z,47.52
2023-05-08T21:46:30.527Z,47.31
2023-05-08T21:49:01.262Z,47.62
2023-05-08T21:51:32.727Z,47.62
2023-05-08T21:54:03.506Z,47.49
2023-05-08T21:56:34.238Z,47.70
2023-05-08T21:59:04.890Z,47.40
2023-05-08T22:01:35.759Z,47.47
2023-05-08T22:04:06.631Z,47.51
2023-05-08T22:06:37.282Z,47.62
2023-05-08T22:09:08.154Z,47.48
2023-05-08T22:11:38.978Z,47.67
2023-05-08T22:14:09.714Z,47.68
2023-05-08T22:16:42.472Z,47.87
2023-05-08T22:19:13.479Z,47.68
2023-05-08T22:21:44.766Z,47.93
2023-05-08T22:24:16.079Z,47.96
2023-05-08T22:26:46.782Z,47.96
2023-05-08T22:29:17.654Z,47.96
2023-05-08T22:31:49.119Z,47.87
2023-05-08T22:34:20.154Z,48.04
2023-05-08T22:36:51.219Z,48.25
2023-05-08T22:39:22.211Z,47.96
2023-05-08T22:41:53.677Z,48.15
2023-05-08T22:44:24.486Z,48.11
2023-05-08T22:46:57.012Z,48.16
2023-05-08T22:49:28.748Z,48.16
2023-05-08T22:51:59.476Z,48.22
2023-05-08T22:54:30.834Z,48.31
2023-05-08T22:57:01.784Z,48.37
2023-05-08T22:59:32.722Z,48.51
2023-05-08T23:02:03.530Z,48.44
2023-05-08T23:04:34.095Z,48.44
2023-05-08T23:07:04.953Z,48.39
2023-05-08T23:09:35.910Z,48.52
2023-05-08T23:12:07.458Z,48.52
2023-05-08T23:14:38.274Z,48.49
2023-05-08T23:17:13.836Z,48.58
2023-05-08T23:19:45.497Z,48.57
2023-05-08T23:22:16.174Z,48.59
2023-05-08T23:24:47.352Z,48.79
2023-05-08T23:27:18.241Z,48.73
2023-05-08T23:29:49.155Z,48.72
2023-05-08T23:32:19.859Z,48.68
2023-05-08T23:34:50.802Z,48.52
2023-05-08T23:37:21.575Z,48.77
2023-05-08T23:39:52.414Z,48.90
2023-05-08T23:42:23.163Z,48.87
2023-05-08T23:44:53.889Z,48.78
2023-05-08T23:47:24.728Z,48.81
2023-05-08T23:49:55.588Z,48.91
2023-05-08T23:52:26.867Z,48.96
2023-05-08T23:54:57.659Z,48.97
2023-05-08T23:57:28.399Z,48.95
2023-05-08T23:59:59.137Z,49.13
